createdAt,value
2018-07-02T00:00:56.882Z,0
2018-07-02T00:01:58.882Z,0
2018-07-02T00:03:00.889Z,0
2018-07-02T00:04:02.886Z,0
2018-07-02T00:05:04.873Z,0
2018-07-02T00:06:07.260Z,0
2018-07-02T00:07:09.991Z,0
2018-07-02T00:08:11.992Z,0
2018-07-02T00:09:14.314Z,0
2018-07-02T00:10:16.326Z,0
2018-07-02T00:11:19.141Z,0
2018-07-02T00:12:21.119Z,0
2018-07-02T00:13:23.426Z,0
2018-07-02T00:14:25.764Z,0
2018-07-02T00:15:27.756Z,0
2018-07-02T00:16:29.759Z,0
2018-07-02T00:17:31.751Z,0
2018-07-02T00:18:33.759Z,0
2018-07-02T00:19:35.745Z,0
2018-07-02T00:20:37.751Z,0
2018-07-02T00:21:39.738Z,0
2018-07-02T00:22:41.729Z,0
2018-07-02T00:23:44.112Z,0
2018-07-02T00:24:46.408Z,0
2018-07-02T00:25:48.412Z,0
2018-07-02T00:26:50.907Z,0
2018-07-02T00:27:52.900Z,0
2018-07-02T00:28:55.285Z,0
2018-07-02T00:29:57.282Z,0
2018-07-02T00:30:59.695Z,0
2018-07-02T00:32:01.685Z,0
2018-07-02T00:33:03.678Z,0
2018-07-02T00:34:06.002Z,0
2018-07-02T00:35:07.992Z,0
2018-07-02T00:36:09.987Z,0
2018-07-02T00:37:11.977Z,0
2018-07-02T00:38:14.303Z,0
2018-07-02T00:39:16.297Z,0
2018-07-02T00:40:18.288Z,0
2018-07-02T00:41:20.281Z,0
2018-07-02T00:42:22.664Z,0
2018-07-02T00:43:24.653Z,0
2018-07-02T00:44:26.650Z,0
2018-07-02T00:45:28.634Z,0
2018-07-02T00:46:30.639Z,0
2018-07-02T00:47:32.628Z,0
2018-07-02T00:48:34.623Z,0
2018-07-02T00:49:36.626Z,0
2018-07-02T00:50:38.621Z,0
2018-07-02T00:51:40.613Z,0
2018-07-02T00:52:42.600Z,0
2018-07-02T00:53:44.585Z,0
2018-07-02T00:54:46.586Z,0
2018-07-02T00:55:49.242Z,0
2018-07-02T00:56:51.622Z,0
2018-07-02T00:57:53.624Z,0
2018-07-02T00:58:55.641Z,0
2018-07-02T00:59:58.217Z,0
2018-07-02T01:01:00.210Z,0
2018-07-02T01:02:02.206Z,0
2018-07-02T01:03:04.883Z,0
2018-07-02T01:04:06.879Z,0
2018-07-02T01:05:09.181Z,0
2018-07-02T01:06:11.185Z,0
2018-07-02T01:07:13.163Z,0
2018-07-02T01:08:15.157Z,0
2018-07-02T01:09:17.152Z,0
2018-07-02T01:10:19.145Z,0
2018-07-02T01:11:21.132Z,0
2018-07-02T01:12:23.126Z,0
2018-07-02T01:13:25.110Z,0
2018-07-02T01:14:27.109Z,0
2018-07-02T01:15:29.097Z,0
2018-07-02T01:16:31.087Z,0
2018-07-02T01:17:33.084Z,0
2018-07-02T01:18:35.072Z,0
2018-07-02T01:19:37.390Z,0
2018-07-02T01:20:39.382Z,0
2018-07-02T01:21:42.238Z,0
2018-07-02T01:22:44.240Z,0
2018-07-02T01:23:46.242Z,0
2018-07-02T01:24:48.223Z,0
2018-07-02T01:25:50.442Z,0
2018-07-02T01:26:52.435Z,0
2018-07-02T01:27:54.433Z,0
2018-07-02T01:28:56.428Z,0
2018-07-02T01:29:58.430Z,0
2018-07-02T01:31:00.463Z,0
2018-07-02T01:32:02.414Z,0
2018-07-02T01:33:04.395Z,0
2018-07-02T01:34:06.397Z,0
2018-07-02T01:35:08.390Z,0
2018-07-02T01:36:10.391Z,0
2018-07-02T01:37:12.385Z,0
2018-07-02T01:38:14.373Z,0
2018-07-02T01:39:16.762Z,0
2018-07-02T01:40:19.586Z,0
2018-07-02T01:41:21.576Z,0
2018-07-02T01:42:23.580Z,0
2018-07-02T01:43:25.574Z,0
2018-07-02T01:44:27.572Z,0
2018-07-02T01:45:29.561Z,0
2018-07-02T01:46:32.282Z,0
2018-07-02T01:47:34.275Z,0
2018-07-02T01:48:36.260Z,0
2018-07-02T01:49:38.259Z,0
2018-07-02T01:50:40.244Z,0
2018-07-02T01:51:42.235Z,0
2018-07-02T01:52:44.228Z,0
2018-07-02T01:53:46.218Z,0
2018-07-02T01:54:48.531Z,0
2018-07-02T01:55:50.849Z,0
2018-07-02T01:56:52.839Z,0
2018-07-02T01:57:54.833Z,0
2018-07-02T01:58:56.837Z,4
2018-07-02T01:59:58.833Z,4
2018-07-02T02:01:00.814Z,4
2018-07-02T02:02:03.608Z,0
2018-07-02T02:03:05.601Z,0
2018-07-02T02:04:07.594Z,4
2018-07-02T02:05:09.916Z,4
2018-07-02T02:06:12.220Z,4
2018-07-02T02:07:14.224Z,4
2018-07-02T02:08:16.502Z,4
2018-07-02T02:09:18.494Z,4
2018-07-02T02:10:20.495Z,8
2018-07-02T02:11:22.486Z,8
2018-07-02T02:12:24.480Z,8
2018-07-02T02:13:26.472Z,8
2018-07-02T02:14:28.758Z,12
2018-07-02T02:15:30.743Z,12
2018-07-02T02:16:32.745Z,12
2018-07-02T02:17:35.059Z,12
2018-07-02T02:18:37.344Z,16
2018-07-02T02:19:39.335Z,16
2018-07-02T02:20:41.320Z,20
2018-07-02T02:21:43.326Z,20
2018-07-02T02:22:45.377Z,28
2018-07-02T02:23:47.317Z,28
2018-07-02T02:24:49.323Z,32
2018-07-02T02:25:51.310Z,36
2018-07-02T02:26:53.302Z,40
2018-07-02T02:27:55.285Z,44
2018-07-02T02:28:57.276Z,48
2018-07-02T02:29:59.281Z,56
2018-07-02T02:31:01.929Z,64
2018-07-02T02:32:04.630Z,72
2018-07-02T02:33:07.219Z,76
2018-07-02T02:34:09.213Z,88
2018-07-02T02:35:11.210Z,96
2018-07-02T02:36:13.211Z,104
2018-07-02T02:37:16.183Z,116
2018-07-02T02:38:18.483Z,124
2018-07-02T02:39:20.468Z,136
2018-07-02T02:40:22.475Z,152
2018-07-02T02:41:24.459Z,168
2018-07-02T02:42:26.454Z,180
2018-07-02T02:43:28.448Z,196
2018-07-02T02:44:31.133Z,208
2018-07-02T02:45:33.114Z,224
2018-07-02T02:46:35.443Z,244
2018-07-02T02:47:38.106Z,264
2018-07-02T02:48:40.104Z,280
2018-07-02T02:49:43.123Z,304
2018-07-02T02:50:45.116Z,320
2018-07-02T02:51:47.108Z,348
2018-07-02T02:52:49.117Z,368
2018-07-02T02:53:51.733Z,392
2018-07-02T02:54:53.732Z,416
2018-07-02T02:55:55.721Z,444
2018-07-02T02:56:58.018Z,468
2018-07-02T02:58:00.008Z,496
2018-07-02T02:59:01.999Z,524
2018-07-02T03:00:03.992Z,552
2018-07-02T03:01:05.985Z,584
2018-07-02T03:02:07.969Z,612
2018-07-02T03:03:09.976Z,644
2018-07-02T03:04:11.967Z,672
2018-07-02T03:05:14.766Z,704
2018-07-02T03:06:17.063Z,740
2018-07-02T03:07:19.056Z,776
2018-07-02T03:08:21.050Z,808
2018-07-02T03:09:23.368Z,844
2018-07-02T03:10:26.105Z,880
2018-07-02T03:11:28.706Z,912
2018-07-02T03:12:31.341Z,948
2018-07-02T03:13:33.953Z,984
2018-07-02T03:14:35.926Z,1016
2018-07-02T03:15:37.926Z,1052
2018-07-02T03:16:39.925Z,1084
2018-07-02T03:17:42.620Z,1120
2018-07-02T03:18:45.307Z,1156
2018-07-02T03:19:47.340Z,1192
2018-07-02T03:20:49.316Z,1224
2018-07-02T03:21:52.187Z,1260
2018-07-02T03:22:54.482Z,1296
2018-07-02T03:23:56.778Z,1328
2018-07-02T03:24:59.380Z,1368
2018-07-02T03:26:01.377Z,1400
2018-07-02T03:27:03.371Z,1440
2018-07-02T03:28:05.366Z,1472
2018-07-02T03:29:07.349Z,1504
2018-07-02T03:30:09.996Z,1548
2018-07-02T03:31:12.976Z,1588
2018-07-02T03:32:15.566Z,1632
2018-07-02T03:33:17.849Z,1672
2018-07-02T03:34:19.830Z,1704
2018-07-02T03:35:21.832Z,1740
2018-07-02T03:36:24.209Z,1772
2018-07-02T03:37:26.496Z,1804
2018-07-02T03:38:28.503Z,1836
2018-07-02T03:39:30.491Z,1864
2018-07-02T03:40:32.479Z,1900
2018-07-02T03:41:34.473Z,1932
2018-07-02T03:42:36.465Z,1960
2018-07-02T03:43:38.470Z,1996
2018-07-02T03:44:40.465Z,2024
2018-07-02T03:45:42.459Z,2052
2018-07-02T03:46:44.835Z,2084
2018-07-02T03:47:47.207Z,2116
2018-07-02T03:48:49.209Z,2144
2018-07-02T03:49:51.816Z,2168
2018-07-02T03:50:53.817Z,2200
2018-07-02T03:51:55.859Z,2228
2018-07-02T03:52:57.803Z,2256
2018-07-02T03:53:59.808Z,2280
2018-07-02T03:55:01.789Z,2304
2018-07-02T03:56:03.798Z,2336
2018-07-02T03:57:05.784Z,2360
2018-07-02T03:58:07.777Z,2388
2018-07-02T03:59:09.760Z,2408
2018-07-02T04:00:11.758Z,2432
2018-07-02T04:01:13.821Z,2456
2018-07-02T04:02:15.746Z,2484
2018-07-02T04:03:17.737Z,2504
2018-07-02T04:04:19.744Z,2528
2018-07-02T04:05:21.725Z,2556
2018-07-02T04:06:23.722Z,2580
2018-07-02T04:07:25.728Z,2608
2018-07-02T04:08:28.353Z,2628
2018-07-02T04:09:30.331Z,2652
2018-07-02T04:10:32.330Z,2676
2018-07-02T04:11:34.316Z,2700
2018-07-02T04:12:36.314Z,2720
2018-07-02T04:13:38.303Z,2744
2018-07-02T04:14:40.304Z,2768
2018-07-02T04:15:42.299Z,2792
2018-07-02T04:16:45.276Z,2808
2018-07-02T04:17:48.061Z,2820
2018-07-02T04:18:50.456Z,2840
2018-07-02T04:19:52.451Z,2860
2018-07-02T04:20:54.444Z,2884
2018-07-02T04:21:56.445Z,2900
2018-07-02T04:22:58.741Z,2920
2018-07-02T04:24:00.736Z,2936
2018-07-02T04:25:02.728Z,2960
2018-07-02T04:26:04.726Z,2976
2018-07-02T04:27:06.722Z,2996
2018-07-02T04:28:08.723Z,3012
2018-07-02T04:29:11.055Z,3028
2018-07-02T04:30:13.347Z,3052
2018-07-02T04:31:15.350Z,3068
2018-07-02T04:32:17.347Z,3084
2018-07-02T04:33:19.336Z,3104
2018-07-02T04:34:21.326Z,3120
2018-07-02T04:35:23.654Z,3144
2018-07-02T04:36:25.641Z,3156
2018-07-02T04:37:28.459Z,3172
2018-07-02T04:38:30.453Z,3192
2018-07-02T04:39:32.736Z,3212
2018-07-02T04:40:35.121Z,3224
2018-07-02T04:41:37.761Z,3244
2018-07-02T04:42:40.567Z,3264
2018-07-02T04:43:42.949Z,3276
2018-07-02T04:44:44.936Z,3292
2018-07-02T04:45:46.937Z,3308
2018-07-02T04:46:48.938Z,3324
2018-07-02T04:47:50.934Z,3340
2018-07-02T04:48:52.935Z,3356
2018-07-02T04:49:54.929Z,3368
2018-07-02T04:50:56.930Z,3388
2018-07-02T04:51:58.936Z,3400
2018-07-02T04:53:00.925Z,3420
2018-07-02T04:54:03.641Z,3436
2018-07-02T04:55:05.634Z,3452
2018-07-02T04:56:07.629Z,3468
2018-07-02T04:57:09.633Z,3480
2018-07-02T04:58:11.621Z,3500
2018-07-02T04:59:13.633Z,3512
2018-07-02T05:00:15.629Z,3528
2018-07-02T05:01:17.616Z,3544
2018-07-02T05:02:19.616Z,3556
2018-07-02T05:03:21.782Z,3580
2018-07-02T05:04:23.604Z,3588
2018-07-02T05:05:25.875Z,3604
2018-07-02T05:06:27.864Z,3620
2018-07-02T05:07:29.855Z,3632
2018-07-02T05:08:31.866Z,3648
2018-07-02T05:09:33.863Z,3664
2018-07-02T05:10:35.870Z,3672
2018-07-02T05:11:38.172Z,3692
2018-07-02T05:12:40.175Z,3704
2018-07-02T05:13:42.162Z,3716
2018-07-02T05:14:44.169Z,3732
2018-07-02T05:15:46.173Z,3736
2018-07-02T05:16:48.175Z,3752
2018-07-02T05:17:50.168Z,3764
2018-07-02T05:18:52.164Z,3776
2018-07-02T05:19:54.165Z,3792
2018-07-02T05:20:56.156Z,3800
2018-07-02T05:21:58.151Z,3812
2018-07-02T05:23:00.147Z,3824
2018-07-02T05:24:02.535Z,3836
2018-07-02T05:25:04.587Z,3848
2018-07-02T05:26:06.526Z,3860
2018-07-02T05:27:08.532Z,3872
2018-07-02T05:28:10.520Z,3884
2018-07-02T05:29:12.518Z,3896
2018-07-02T05:30:14.794Z,3912
2018-07-02T05:31:16.802Z,3920
2018-07-02T05:32:18.799Z,3928
2018-07-02T05:33:21.071Z,3944
2018-07-02T05:34:23.088Z,3952
2018-07-02T05:35:25.083Z,3964
2018-07-02T05:36:27.079Z,3972
2018-07-02T05:37:29.078Z,3980
2018-07-02T05:38:31.079Z,3988
2018-07-02T05:39:33.071Z,4000
2018-07-02T05:40:35.084Z,4012
2018-07-02T05:41:37.073Z,4024
2018-07-02T05:42:39.070Z,4036
2018-07-02T05:43:41.068Z,4044
2018-07-02T05:44:43.070Z,4056
2018-07-02T05:45:45.063Z,4068
2018-07-02T05:46:47.060Z,4080
2018-07-02T05:47:49.053Z,4088
2018-07-02T05:48:51.351Z,4100
2018-07-02T05:49:53.346Z,4112
2018-07-02T05:50:55.341Z,4124
2018-07-02T05:51:57.720Z,4136
2018-07-02T05:52:59.999Z,4148
2018-07-02T05:54:02.010Z,4160
2018-07-02T05:55:04.942Z,4168
2018-07-02T05:56:06.949Z,4172
2018-07-02T05:57:08.945Z,4184
2018-07-02T05:58:11.132Z,4196
2018-07-02T05:59:12.941Z,4204
2018-07-02T06:00:15.363Z,4216
2018-07-02T06:01:17.545Z,4232
2018-07-02T06:02:19.832Z,4236
2018-07-02T06:03:21.837Z,4252
2018-07-02T06:04:24.110Z,4260
2018-07-02T06:05:26.386Z,4276
2018-07-02T06:06:28.384Z,4284
2018-07-02T06:07:30.774Z,4296
2018-07-02T06:08:32.760Z,4304
2018-07-02T06:09:34.760Z,4312
2018-07-02T06:10:36.757Z,4324
2018-07-02T06:11:38.754Z,4332
2018-07-02T06:12:40.752Z,4340
2018-07-02T06:13:43.041Z,4352
2018-07-02T06:14:45.432Z,4360
2018-07-02T06:15:47.442Z,4376
2018-07-02T06:16:50.012Z,4392
2018-07-02T06:17:52.018Z,4400
2018-07-02T06:18:54.298Z,4412
2018-07-02T06:19:56.596Z,4420
2018-07-02T06:20:58.616Z,4436
2018-07-02T06:22:00.588Z,4448
2018-07-02T06:23:02.979Z,4460
2018-07-02T06:24:04.991Z,4476
2018-07-02T06:25:07.281Z,4484
2018-07-02T06:26:09.285Z,4500
2018-07-02T06:27:11.275Z,4508
2018-07-02T06:28:13.282Z,4524
2018-07-02T06:29:15.278Z,4532
2018-07-02T06:30:17.281Z,4540
2018-07-02T06:31:19.962Z,4556
2018-07-02T06:32:21.950Z,4568
2018-07-02T06:33:23.951Z,4576
2018-07-02T06:34:25.954Z,4588
2018-07-02T06:35:27.961Z,4600
2018-07-02T06:36:30.253Z,4612
2018-07-02T06:37:32.255Z,4620
2018-07-02T06:38:34.261Z,4632
2018-07-02T06:39:36.545Z,4644
2018-07-02T06:40:38.537Z,4656
2018-07-02T06:41:40.539Z,4672
2018-07-02T06:42:42.824Z,4680
2018-07-02T06:43:45.210Z,4692
2018-07-02T06:44:47.213Z,4712
2018-07-02T06:45:49.600Z,4724
2018-07-02T06:46:51.601Z,4740
2018-07-02T06:47:53.594Z,4756
2018-07-02T06:48:55.590Z,4772
2018-07-02T06:49:57.606Z,4784
2018-07-02T06:50:59.895Z,4792
2018-07-02T06:52:02.194Z,4812
2018-07-02T06:53:04.588Z,4824
2018-07-02T06:54:06.617Z,4836
2018-07-02T06:55:08.665Z,4852
2018-07-02T06:56:11.565Z,4868
2018-07-02T06:57:13.560Z,4880
2018-07-02T06:58:15.569Z,4908
2018-07-02T06:59:17.937Z,4932
2018-07-02T07:00:20.218Z,4956
2018-07-02T07:01:22.223Z,4976
2018-07-02T07:02:24.217Z,5000
2018-07-02T07:03:26.233Z,5020
2018-07-02T07:04:28.543Z,5040
2018-07-02T07:05:30.623Z,5048
2018-07-02T07:06:32.630Z,5060
2018-07-02T07:07:34.687Z,5072
2018-07-02T07:08:36.734Z,5088
2018-07-02T07:09:38.700Z,5096
2018-07-02T07:10:40.777Z,5100
2018-07-02T07:11:43.075Z,5116
2018-07-02T07:12:45.151Z,5120
2018-07-02T07:13:47.157Z,5132
2018-07-02T07:14:49.163Z,5148
2018-07-02T07:15:51.157Z,5152
2018-07-02T07:16:53.168Z,5160
2018-07-02T07:17:55.177Z,5176
2018-07-02T07:18:57.180Z,5188
2018-07-02T07:19:59.193Z,5196
2018-07-02T07:21:01.592Z,5212
2018-07-02T07:22:03.604Z,5224
2018-07-02T07:23:05.611Z,5224
2018-07-02T07:24:07.617Z,5232
2018-07-02T07:25:09.628Z,5240
2018-07-02T07:26:11.628Z,5248
2018-07-02T07:27:13.634Z,5260
2018-07-02T07:28:15.650Z,5268
2018-07-02T07:29:17.652Z,5268
2018-07-02T07:30:19.666Z,5284
2018-07-02T07:31:21.737Z,5292
2018-07-02T07:32:23.780Z,5308
2018-07-02T07:33:25.916Z,5316
2018-07-02T07:34:27.927Z,5328
2018-07-02T07:35:30.209Z,5336
2018-07-02T07:36:32.223Z,5344
2018-07-02T07:37:34.609Z,5352
2018-07-02T07:38:36.896Z,5364
2018-07-02T07:39:38.891Z,5376
2018-07-02T07:40:41.021Z,5384
2018-07-02T07:41:43.846Z,5404
2018-07-02T07:42:46.192Z,5420
2018-07-02T07:43:48.190Z,5432
2018-07-02T07:44:50.283Z,5452
2018-07-02T07:45:52.590Z,5456
2018-07-02T07:46:54.796Z,5476
2018-07-02T07:47:56.808Z,5496
2018-07-02T07:48:58.811Z,5508
2018-07-02T07:50:00.822Z,5532
2018-07-02T07:51:02.938Z,5548
2018-07-02T07:52:05.320Z,5572
2018-07-02T07:53:07.367Z,5588
2018-07-02T07:54:09.329Z,5604
2018-07-02T07:55:11.592Z,5636
2018-07-02T07:56:14.024Z,5652
2018-07-02T07:57:16.034Z,5688
2018-07-02T07:58:18.319Z,5712
2018-07-02T07:59:20.357Z,5732
2018-07-02T08:00:22.725Z,5752
2018-07-02T08:01:24.741Z,5776
2018-07-02T08:02:26.773Z,5800
2018-07-02T08:03:28.783Z,5824
2018-07-02T08:04:30.799Z,5860
2018-07-02T08:05:32.795Z,5880
2018-07-02T08:06:34.799Z,5904
2018-07-02T08:07:36.814Z,5932
2018-07-02T08:08:38.823Z,5980
2018-07-02T08:09:40.826Z,6004
2018-07-02T08:10:42.824Z,6032
2018-07-02T08:11:45.033Z,6060
2018-07-02T08:12:47.395Z,6096
2018-07-02T08:13:49.401Z,6124
2018-07-02T08:14:51.403Z,6160
2018-07-02T08:15:53.406Z,6200
2018-07-02T08:16:55.580Z,6248
2018-07-02T08:17:57.981Z,6296
2018-07-02T08:19:00.047Z,6348
2018-07-02T08:20:03.308Z,6404
2018-07-02T08:21:06.096Z,6460
2018-07-02T08:22:08.126Z,6496
2018-07-02T08:23:10.132Z,6524
2018-07-02T08:24:12.163Z,6528
2018-07-02T08:25:14.183Z,6524
2018-07-02T08:26:16.193Z,6520
2018-07-02T08:27:18.537Z,6516
2018-07-02T08:28:20.731Z,6524
2018-07-02T08:29:27.935Z,6520
2018-07-02T08:30:29.945Z,6516
2018-07-02T08:31:31.962Z,6516
2018-07-02T08:32:33.960Z,6532
2018-07-02T08:33:35.967Z,6700
2018-07-02T08:34:37.968Z,9812
2018-07-02T08:35:39.970Z,10696
2018-07-02T08:36:42.221Z,17276
2018-07-02T08:37:44.274Z,26176
2018-07-02T08:38:46.460Z,28960
2018-07-02T08:39:48.572Z,32416
2018-07-02T08:40:50.583Z,29792
2018-07-02T08:41:52.592Z,36320
2018-07-02T08:42:54.594Z,30272
2018-07-02T08:43:56.603Z,35712
2018-07-02T08:44:58.627Z,32640
2018-07-02T08:46:00.916Z,34304
2018-07-02T08:47:02.926Z,35456
2018-07-02T08:48:04.940Z,30272
2018-07-02T08:49:07.230Z,69728
2018-07-02T08:50:09.241Z,96544
2018-07-02T08:51:11.240Z,86176
2018-07-02T08:52:13.353Z,82752
2018-07-02T08:53:15.365Z,83680
2018-07-02T08:54:17.370Z,85760
2018-07-02T08:55:19.762Z,88640
2018-07-02T08:56:22.077Z,82208
2018-07-02T08:57:24.079Z,75040
2018-07-02T08:58:26.081Z,80736
2018-07-02T08:59:28.371Z,89088
2018-07-02T09:00:30.437Z,98720
2018-07-02T09:01:32.497Z,99168
2018-07-02T09:02:34.982Z,94912
2018-07-02T09:03:37.076Z,87072
2018-07-02T09:04:39.158Z,90528
2018-07-02T09:05:41.469Z,90432
2018-07-02T09:06:43.528Z,89280
2018-07-02T09:07:45.904Z,90720
2018-07-02T09:08:48.228Z,91040
2018-07-02T09:09:50.502Z,85184
2018-07-02T09:10:52.790Z,86208
2018-07-02T09:11:55.474Z,97664
2018-07-02T09:12:57.863Z,92544
2018-07-02T09:13:59.865Z,84288
2018-07-02T09:15:01.883Z,90816
2018-07-02T09:16:04.018Z,91776
2018-07-02T09:17:05.952Z,96576
2018-07-02T09:18:08.220Z,96224
2018-07-02T09:19:10.121Z,93440
2018-07-02T09:20:12.551Z,94848
2018-07-02T09:21:14.559Z,99456
2018-07-02T09:22:16.571Z,98336
2018-07-02T09:23:18.658Z,95360
2018-07-02T09:24:20.605Z,98080
2018-07-02T09:25:22.597Z,99392
2018-07-02T09:26:24.625Z,99328
2018-07-02T09:27:26.651Z,104224
2018-07-02T09:28:28.661Z,106880
2018-07-02T09:29:30.675Z,102912
2018-07-02T09:30:32.686Z,98912
2018-07-02T09:31:34.896Z,99264
2018-07-02T09:32:36.929Z,98144
2018-07-02T09:33:39.302Z,102432
2018-07-02T09:34:41.701Z,102112
2018-07-02T09:35:43.732Z,98112
2018-07-02T09:36:46.023Z,99808
2018-07-02T09:37:48.059Z,98336
2018-07-02T09:38:50.829Z,97984
2018-07-02T09:39:53.043Z,100064
2018-07-02T09:40:56.261Z,96320
2018-07-02T09:42:00.016Z,95968
2018-07-02T09:43:06.051Z,103584
2018-07-02T09:44:08.078Z,106752
2018-07-02T09:45:10.080Z,106048
2018-07-02T09:46:12.690Z,106208
2018-07-02T09:47:14.493Z,112672
2018-07-02T09:48:16.884Z,110176
2018-07-02T09:49:18.894Z,99520
2018-07-02T09:50:20.897Z,107680
2018-07-02T09:51:22.905Z,115712
2018-07-02T09:52:24.914Z,105824
2018-07-02T09:53:26.926Z,107680
2018-07-02T09:54:28.935Z,124448
2018-07-02T09:55:30.952Z,132512
2018-07-02T09:56:32.965Z,128000
2018-07-02T09:57:34.972Z,126784
2018-07-02T09:58:37.290Z,124672
2018-07-02T09:59:39.310Z,120736
2018-07-02T10:00:41.396Z,128288
2018-07-02T10:01:43.340Z,141088
2018-07-02T10:02:45.654Z,135072
2018-07-02T10:03:47.667Z,124128
2018-07-02T10:04:49.683Z,128608
2018-07-02T10:05:51.691Z,128736
2018-07-02T10:06:54.024Z,126016
2018-07-02T10:07:56.038Z,16200
2018-07-02T10:08:58.076Z,13224
2018-07-02T10:10:00.075Z,19908
2018-07-02T10:11:02.095Z,141888
2018-07-02T10:12:04.489Z,131744
2018-07-02T10:13:06.507Z,125952
2018-07-02T10:14:08.523Z,125472
2018-07-02T10:15:10.543Z,120672
2018-07-02T10:16:12.832Z,116928
2018-07-02T10:17:14.848Z,111296
2018-07-02T10:18:16.865Z,125568
2018-07-02T10:19:18.881Z,29216
2018-07-02T10:20:20.972Z,16504
2018-07-02T10:21:23.616Z,27584
2018-07-02T10:22:25.931Z,144512
2018-07-02T10:23:27.998Z,140160
2018-07-02T10:24:29.963Z,133696
2018-07-02T10:25:31.991Z,131072
2018-07-02T10:26:34.009Z,131744
2018-07-02T10:27:36.020Z,131296
2018-07-02T10:28:38.032Z,128512
2018-07-02T10:29:40.441Z,49120
2018-07-02T10:30:42.499Z,22816
2018-07-02T10:31:44.810Z,35392
2018-07-02T10:32:47.104Z,122816
2018-07-02T10:33:49.120Z,139904
2018-07-02T10:34:51.467Z,121408
2018-07-02T10:35:53.799Z,113824
2018-07-02T10:36:55.821Z,120800
2018-07-02T10:37:57.840Z,121280
2018-07-02T10:38:59.908Z,121504
2018-07-02T10:40:02.557Z,126368
2018-07-02T10:41:04.861Z,128544
2018-07-02T10:42:06.880Z,124864
2018-07-02T10:43:08.891Z,127072
2018-07-02T10:44:10.908Z,125792
2018-07-02T10:45:13.315Z,123616
2018-07-02T10:46:15.338Z,119360
2018-07-02T10:47:17.358Z,124416
2018-07-02T10:48:19.382Z,132384
2018-07-02T10:49:21.386Z,131040
2018-07-02T10:50:23.442Z,125536
2018-07-02T10:51:25.432Z,128160
2018-07-02T10:52:27.448Z,131712
2018-07-02T10:53:29.744Z,141152
2018-07-02T10:54:31.766Z,50880
2018-07-02T10:55:33.794Z,37472
2018-07-02T10:56:36.157Z,84192
2018-07-02T10:57:38.182Z,57952
2018-07-02T10:58:40.214Z,149088
2018-07-02T10:59:42.230Z,147744
2018-07-02T11:00:44.247Z,110752
2018-07-02T11:01:46.269Z,143648
2018-07-02T11:02:48.291Z,132576
2018-07-02T11:03:50.316Z,129696
2018-07-02T11:04:52.336Z,130336
2018-07-02T11:05:54.363Z,122912
2018-07-02T11:06:56.659Z,120960
2018-07-02T11:07:58.669Z,122080
2018-07-02T11:09:00.985Z,126208
2018-07-02T11:10:03.280Z,131392
2018-07-02T11:11:05.357Z,133792
2018-07-02T11:12:07.335Z,134560
2018-07-02T11:13:09.639Z,134176
2018-07-02T11:14:12.344Z,135456
2018-07-02T11:15:14.359Z,136160
2018-07-02T11:16:16.388Z,37568
2018-07-02T11:17:18.409Z,34720
2018-07-02T11:18:20.429Z,30944
2018-07-02T11:19:22.455Z,25472
2018-07-02T11:20:24.456Z,22784
2018-07-02T11:21:26.474Z,19648
2018-07-02T11:22:28.511Z,16676
2018-07-02T11:23:30.529Z,16040
2018-07-02T11:24:32.566Z,16408
2018-07-02T11:25:34.596Z,19904
2018-07-02T11:26:37.004Z,142208
2018-07-02T11:27:39.016Z,149696
2018-07-02T11:28:41.324Z,27744
2018-07-02T11:29:43.341Z,151872
2018-07-02T11:30:45.360Z,116320
2018-07-02T11:31:47.671Z,54464
2018-07-02T11:32:50.082Z,55392
2018-07-02T11:33:52.095Z,68576
2018-07-02T11:34:54.120Z,43520
2018-07-02T11:35:56.132Z,31712
2018-07-02T11:36:58.148Z,160576
2018-07-02T11:38:00.172Z,29536
2018-07-02T11:39:02.184Z,54560
2018-07-02T11:40:04.199Z,157920
2018-07-02T11:41:06.225Z,155424
2018-07-02T11:42:08.235Z,159968
2018-07-02T11:43:10.259Z,154880
2018-07-02T11:44:12.355Z,141920
2018-07-02T11:45:14.676Z,146112
2018-07-02T11:46:16.706Z,143264
2018-07-02T11:47:19.097Z,74208
2018-07-02T11:48:21.114Z,23584
2018-07-02T11:49:23.133Z,130784
2018-07-02T11:50:25.149Z,140608
2018-07-02T11:51:27.156Z,140736
2018-07-02T11:52:29.171Z,126528
2018-07-02T11:53:31.206Z,120160
2018-07-02T11:54:33.220Z,133536
2018-07-02T11:55:35.228Z,143392
2018-07-02T11:56:37.255Z,141376
2018-07-02T11:57:39.267Z,69504
2018-07-02T11:58:41.286Z,122080
2018-07-02T11:59:43.690Z,121792
2018-07-02T12:00:45.986Z,133440
2018-07-02T12:01:48.044Z,140512
2018-07-02T12:02:50.333Z,137376
2018-07-02T12:03:52.362Z,132288
2018-07-02T12:04:54.380Z,115808
2018-07-02T12:05:56.391Z,32704
2018-07-02T12:06:58.415Z,56512
2018-07-02T12:08:00.430Z,29216
2018-07-02T12:09:02.642Z,28512
2018-07-02T12:10:05.478Z,30432
2018-07-02T12:11:07.778Z,135488
2018-07-02T12:12:09.797Z,140704
2018-07-02T12:13:11.842Z,134464
2018-07-02T12:14:13.855Z,126144
2018-07-02T12:15:18.941Z,120832
2018-07-02T12:16:20.954Z,110496
2018-07-02T12:17:22.979Z,104992
2018-07-02T12:18:24.999Z,105568
2018-07-02T12:19:27.574Z,113376
2018-07-02T12:20:29.974Z,122528
2018-07-02T12:21:32.006Z,129120
2018-07-02T12:22:34.299Z,122560
2018-07-02T12:23:36.319Z,111840
2018-07-02T12:24:38.340Z,116448
2018-07-02T12:25:40.363Z,57792
2018-07-02T12:26:42.388Z,49728
2018-07-02T12:27:44.398Z,117600
2018-07-02T12:28:46.499Z,33216
2018-07-02T12:29:48.520Z,123136
2018-07-02T12:30:50.593Z,121120
2018-07-02T12:31:53.000Z,130272
2018-07-02T12:32:55.089Z,139008
2018-07-02T12:33:57.121Z,138720
2018-07-02T12:34:59.217Z,128480
2018-07-02T12:36:01.530Z,120992
2018-07-02T12:37:03.939Z,120576
2018-07-02T12:38:06.310Z,123680
2018-07-02T12:39:08.329Z,122496
2018-07-02T12:40:10.348Z,121024
2018-07-02T12:41:12.878Z,124416
2018-07-02T12:42:14.842Z,132096
2018-07-02T12:43:17.237Z,141888
2018-07-02T12:44:19.259Z,135648
2018-07-02T12:45:21.859Z,92128
2018-07-02T12:46:23.947Z,112320
2018-07-02T12:47:26.023Z,112352
2018-07-02T12:48:28.184Z,112000
2018-07-02T12:49:30.206Z,108512
2018-07-02T12:50:32.226Z,110528
2018-07-02T12:51:34.232Z,113408
2018-07-02T12:52:36.561Z,114944
2018-07-02T12:53:38.579Z,18812
2018-07-02T12:54:40.660Z,136224
2018-07-02T12:55:42.727Z,132256
2018-07-02T12:56:44.743Z,49024
2018-07-02T12:57:46.781Z,135168
2018-07-02T12:58:48.795Z,119360
2018-07-02T12:59:50.877Z,113248
2018-07-02T13:00:52.902Z,116512
2018-07-02T13:01:54.905Z,116224
2018-07-02T13:02:56.923Z,115072
2018-07-02T13:03:58.964Z,117408
2018-07-02T13:05:00.981Z,116256
2018-07-02T13:06:03.310Z,50400
2018-07-02T13:07:05.341Z,18900
2018-07-02T13:08:07.447Z,19160
2018-07-02T13:09:09.817Z,105344
2018-07-02T13:10:11.939Z,105760
2018-07-02T13:11:14.022Z,104832
2018-07-02T13:12:16.036Z,99936
2018-07-02T13:13:18.441Z,100352
2018-07-02T13:14:20.481Z,104544
2018-07-02T13:15:22.646Z,107456
2018-07-02T13:16:25.057Z,113856
2018-07-02T13:17:27.772Z,43680
2018-07-02T13:18:29.799Z,127392
2018-07-02T13:19:31.928Z,93120
2018-07-02T13:20:34.057Z,104032
2018-07-02T13:21:36.056Z,100640
2018-07-02T13:22:38.079Z,102240
2018-07-02T13:23:40.401Z,106336
2018-07-02T13:24:42.342Z,105696
2018-07-02T13:25:44.660Z,14240
2018-07-02T13:26:46.721Z,23616
2018-07-02T13:27:49.613Z,76896
2018-07-02T13:28:51.684Z,98240
2018-07-02T13:29:56.210Z,98144
2018-07-02T13:30:58.485Z,103808
2018-07-02T13:32:00.500Z,109056
2018-07-02T13:33:02.618Z,108192
2018-07-02T13:34:04.630Z,103072
2018-07-02T13:35:07.040Z,99104
2018-07-02T13:36:09.374Z,114272
2018-07-02T13:37:11.676Z,127424
2018-07-02T13:38:13.702Z,129056
2018-07-02T13:39:15.751Z,126624
2018-07-02T13:40:17.924Z,119072
2018-07-02T13:41:20.050Z,109120
2018-07-02T13:42:22.138Z,113344
2018-07-02T13:43:24.280Z,116992
2018-07-02T13:44:26.847Z,108224
2018-07-02T13:45:29.032Z,91008
2018-07-02T13:46:31.363Z,86688